sensor_id;sensor_type;location;lat;lon;timestamp;pressure;altitude;pressure_sealevel;temperature;humidity
3444;BME280;1736;52.068;6.968;2023-03-15T00:00:51;100552.75;;;1.87;100.00
3444;BME280;1736;52.068;6.968;2023-03-15T00:03:20;100547.22;;;1.59;100.00
3444;BME280;1736;52.068;6.968;2023-03-15T00:05:50;100551.41;;;1.27;100.00
3444;BME280;1736;52.068;6.968;2023-03-15T00:08:18;100559.88;;;1.14;100.00
3444;BME280;1736;52.068;6.968;2023-03-15T00:10:46;100558.59;;;1.04;100.00
3444;BME280;1736;52.068;6.968;2023-03-15T00:13:14;100555.16;;;0.85;100.00
3444;BME280;1736;52.068;6.968;2023-03-15T00:15:44;100562.56;;;0.75;100.00
3444;BME280;1736;52.068;6.968;2023-03-15T00:18:11;100554.94;;;0.71;100.00
3444;BME280;1736;52.068;6.968;2023-03-15T00:20:37;100562.00;;;0.69;100.00
3444;BME280;1736;52.068;6.968;2023-03-15T00:23:05;100564.56;;;0.70;100.00
3444;BME280;1736;52.068;6.968;2023-03-15T00:25:32;100567.66;;;0.60;100.00
3444;BME280;1736;52.068;6.968;2023-03-15T00:27:58;100563.25;;;0.60;100.00
3444;BME280;1736;52.068;6.968;2023-03-15T00:30:25;100564.31;;;0.56;100.00
3444;BME280;1736;52.068;6.968;2023-03-15T00:32:52;100563.63;;;0.53;100.00
3444;BME280;1736;52.068;6.968;2023-03-15T00:35:19;100566.41;;;0.48;100.00
3444;BME280;1736;52.068;6.968;2023-03-15T00:37:45;100564.78;;;0.46;100.00
3444;BME280;1736;52.068;6.968;2023-03-15T00:40:13;100571.00;;;0.43;100.00
3444;BME280;1736;52.068;6.968;2023-03-15T00:42:40;100561.13;;;0.50;100.00
3444;BME280;1736;52.068;6.968;2023-03-15T00:45:14;100563.81;;;0.48;100.00
3444;BME280;1736;52.068;6.968;2023-03-15T00:47:41;100576.72;;;0.51;100.00
3444;BME280;1736;52.068;6.968;2023-03-15T00:50:08;100567.28;;;0.49;100.00
3444;BME280;1736;52.068;6.968;2023-03-15T00:52:35;100576.53;;;0.56;100.00
3444;BME280;1736;52.068;6.968;2023-03-15T00:55:04;100579.66;;;0.64;100.00
3444;BME280;1736;52.068;6.968;2023-03-15T00:57:33;100569.59;;;0.55;100.00
3444;BME280;1736;52.068;6.968;2023-03-15T00:59:59;100577.56;;;0.72;100.00
3444;BME280;1736;52.068;6.968;2023-03-15T01:02:31;100573.56;;;0.63;100.00
3444;BME280;1736;52.068;6.968;2023-03-15T01:04:58;100583.88;;;0.66;100.00
3444;BME280;1736;52.068;6.968;2023-03-15T01:07:26;100578.78;;;0.63;100.00
3444;BME280;1736;52.068;6.968;2023-03-15T01:09:52;100581.47;;;0.62;100.00
3444;BME280;1736;52.068;6.968;2023-03-15T01:12:19;100576.56;;;0.74;100.00
3444;BME280;1736;52.068;6.968;2023-03-15T01:14:46;100568.22;;;0.85;100.00
3444;BME280;1736;52.068;6.968;2023-03-15T01:17:13;100579.31;;;0.71;100.00
3444;BME280;1736;52.068;6.968;2023-03-15T01:19:40;100580.16;;;0.72;100.00
3444;BME280;1736;52.068;6.968;2023-03-15T01:22:06;100584.72;;;0.67;100.00
3444;BME280;1736;52.068;6.968;2023-03-15T01:24:33;100587.19;;;0.70;100.00
3444;BME280;1736;52.068;6.968;2023-03-15T01:26:59;100585.50;;;0.69;100.00
3444;BME280;1736;52.068;6.968;2023-03-15T01:29:26;100586.16;;;0.74;100.00
3444;BME280;1736;52.068;6.968;2023-03-15T01:31:54;100588.13;;;0.69;100.00
3444;BME280;1736;52.068;6.968;2023-03-15T01:34:20;100585.72;;;0.83;100.00
3444;BME280;1736;52.068;6.968;2023-03-15T01:36:48;100595.06;;;0.88;100.00
3444;BME280;1736;52.068;6.968;2023-03-15T01:39:16;100606.56;;;0.84;100.00
3444;BME280;1736;52.068;6.968;2023-03-15T01:41:43;100605.72;;;0.84;100.00
3444;BME280;1736;52.068;6.968;2023-03-15T01:44:12;100607.41;;;0.85;100.00
3444;BME280;1736;52.068;6.968;2023-03-15T01:46:39;100609.47;;;0.97;100.00
3444;BME280;1736;52.068;6.968;2023-03-15T01:49:08;100608.19;;;0.87;100.00
3444;BME280;1736;52.068;6.968;2023-03-15T01:51:40;100611.44;;;0.92;100.00
3444;BME280;1736;52.068;6.968;2023-03-15T01:54:10;100613.19;;;0.91;100.00
3444;BME280;1736;52.068;6.968;2023-03-15T01:56:41;100609.72;;;0.91;100.00
3444;BME280;1736;52.068;6.968;2023-03-15T01:59:13;100604.66;;;0.88;100.00
3444;BME280;1736;52.068;6.968;2023-03-15T02:01:42;100609.22;;;0.83;100.00
3444;BME280;1736;52.068;6.968;2023-03-15T02:04:13;100611.44;;;0.92;100.00
3444;BME280;1736;52.068;6.968;2023-03-15T02:06:43;100617.63;;;0.89;100.00
3444;BME280;1736;52.068;6.968;2023-03-15T02:09:14;100629.13;;;0.85;100.00
3444;BME280;1736;52.068;6.968;2023-03-15T02:11:42;100628.75;;;0.94;100.00
3444;BME280;1736;52.068;6.968;2023-03-15T02:14:11;100632.06;;;0.98;100.00
3444;BME280;1736;52.068;6.968;2023-03-15T02:16:38;100629.75;;;0.92;100.00
3444;BME280;1736;52.068;6.968;2023-03-15T02:19:05;100628.69;;;0.96;100.00
3444;BME280;1736;52.068;6.968;2023-03-15T02:21:45;100637.47;;;0.93;100.00
3444;BME280;1736;52.068;6.968;2023-03-15T02:24:26;100638.91;;;1.00;100.00
3444;BME280;1736;52.068;6.968;2023-03-15T02:26:57;100639.13;;;0.96;100.00
3444;BME280;1736;52.068;6.968;2023-03-15T02:29:26;100647.31;;;1.07;100.00
3444;BME280;1736;52.068;6.968;2023-03-15T02:31:54;100654.09;;;1.11;100.00
3444;BME280;1736;52.068;6.968;2023-03-15T02:34:22;100651.78;;;1.05;100.00
3444;BME280;1736;52.068;6.968;2023-03-15T02:36:50;100655.94;;;1.09;100.00
3444;BME280;1736;52.068;6.968;2023-03-15T02:39:18;100656.94;;;1.06;100.00
3444;BME280;1736;52.068;6.968;2023-03-15T02:41:49;100660.59;;;1.02;100.00
3444;BME280;1736;52.068;6.968;2023-03-15T02:44:18;100661.16;;;1.09;100.00
3444;BME280;1736;52.068;6.968;2023-03-15T02:46:50;100666.09;;;1.15;100.00
3444;BME280;1736;52.068;6.968;2023-03-15T02:49:21;100672.88;;;1.19;100.00
3444;BME280;1736;52.068;6.968;2023-03-15T02:51:48;100673.03;;;1.16;100.00
3444;BME280;1736;52.068;6.968;2023-03-15T02:54:15;100682.41;;;1.20;100.00
3444;BME280;1736;52.068;6.968;2023-03-15T02:56:42;100690.41;;;1.17;100.00
3444;BME280;1736;52.068;6.968;2023-03-15T02:59:08;100696.47;;;1.17;100.00
3444;BME280;1736;52.068;6.968;2023-03-15T03:01:37;100695.22;;;1.26;100.00
3444;BME280;1736;52.068;6.968;2023-03-15T03:04:05;100696.09;;;1.26;100.00
3444;BME280;1736;52.068;6.968;2023-03-15T03:06:32;100708.22;;;1.27;100.00
3444;BME280;1736;52.068;6.968;2023-03-15T03:08:58;100705.81;;;1.23;100.00
3444;BME280;1736;52.068;6.968;2023-03-15T03:11:29;100708.34;;;1.24;100.00
3444;BME280;1736;52.068;6.968;2023-03-15T03:13:55;100708.28;;;1.26;100.00
3444;BME280;1736;52.068;6.968;2023-03-15T03:16:22;100721.38;;;1.26;100.00
3444;BME280;1736;52.068;6.968;2023-03-15T03:18:48;100733.00;;;1.19;100.00
3444;BME280;1736;52.068;6.968;2023-03-15T03:21:17;100736.66;;;1.15;100.00
3444;BME280;1736;52.068;6.968;2023-03-15T03:23:43;100732.56;;;1.28;100.00
3444;BME280;1736;52.068;6.968;2023-03-15T03:26:12;100737.19;;;1.23;100.00
3444;BME280;1736;52.068;6.968;2023-03-15T03:28:41;100744.38;;;1.18;100.00
3444;BME280;1736;52.068;6.968;2023-03-15T03:31:15;100750.47;;;1.18;100.00
3444;BME280;1736;52.068;6.968;2023-03-15T03:33:42;100753.59;;;1.26;100.00
3444;BME280;1736;52.068;6.968;2023-03-15T03:36:09;100765.78;;;1.26;100.00
3444;BME280;1736;52.068;6.968;2023-03-15T03:38:39;100761.34;;;1.28;100.00
3444;BME280;1736;52.068;6.968;2023-03-15T03:41:07;100769.13;;;1.29;100.00
3444;BME280;1736;52.068;6.968;2023-03-15T03:43:34;100774.28;;;1.31;100.00
3444;BME280;1736;52.068;6.968;2023-03-15T03:46:01;100773.50;;;1.29;100.00
3444;BME280;1736;52.068;6.968;2023-03-15T03:48:28;100775.06;;;1.33;100.00
3444;BME280;1736;52.068;6.968;2023-03-15T03:50:55;100779.25;;;1.37;100.00
3444;BME280;1736;52.068;6.968;2023-03-15T03:53:22;100783.69;;;1.35;100.00
3444;BME280;1736;52.068;6.968;2023-03-15T03:55:51;100786.34;;;1.33;100.00
3444;BME280;1736;52.068;6.968;2023-03-15T03:58:18;100790.75;;;1.33;100.00
3444;BME280;1736;52.068;6.968;2023-03-15T04:00:45;100785.66;;;1.30;100.00
3444;BME280;1736;52.068;6.968;2023-03-15T04:03:12;100789.03;;;1.32;100.00
3444;BME280;1736;52.068;6.968;2023-03-15T04:05:39;100797.38;;;1.40;100.00
3444;BME280;1736;52.068;6.968;2023-03-15T04:08:06;100795.44;;;1.45;100.00
3444;BME280;1736;52.068;6.968;2023-03-15T04:10:32;100801.34;;;1.30;100.00
3444;BME280;1736;52.068;6.968;2023-03-15T04:13:00;100802.34;;;1.27;100.00
3444;BME280;1736;52.068;6.968;2023-03-15T04:15:27;100805.59;;;1.32;100.00
3444;BME280;1736;52.068;6.968;2023-03-15T04:17:54;100810.09;;;1.29;100.00
3444;BME280;1736;52.068;6.968;2023-03-15T04:20:21;100820.56;;;1.29;100.00
3444;BME280;1736;52.068;6.968;2023-03-15T04:22:48;100820.00;;;1.22;100.00
3444;BME280;1736;52.068;6.968;2023-03-15T04:25:15;100820.41;;;1.32;100.00
3444;BME280;1736;52.068;6.968;2023-03-15T04:27:41;100829.09;;;1.32;100.00
3444;BME280;1736;52.068;6.968;2023-03-15T04:30:11;100821.97;;;1.36;100.00
3444;BME280;1736;52.068;6.968;2023-03-15T04:32:37;100828.19;;;1.33;100.00
3444;BME280;1736;52.068;6.968;2023-03-15T04:35:07;100830.75;;;1.35;100.00
3444;BME280;1736;52.068;6.968;2023-03-15T04:37:35;100836.66;;;1.38;100.00
3444;BME280;1736;52.068;6.968;2023-03-15T04:40:02;100847.22;;;1.37;100.00
3444;BME280;1736;52.068;6.968;2023-03-15T04:42:31;100850.09;;;1.31;100.00
3444;BME280;1736;52.068;6.968;2023-03-15T04:44:58;100851.53;;;1.38;100.00
3444;BME280;1736;52.068;6.968;2023-03-15T04:47:26;100846.94;;;1.43;100.00
3444;BME280;1736;52.068;6.968;2023-03-15T04:49:53;100860.28;;;1.37;100.00
3444;BME280;1736;52.068;6.968;2023-03-15T04:52:19;100849.75;;;1.38;100.00
3444;BME280;1736;52.068;6.968;2023-03-15T04:54:46;100861.06;;;1.39;100.00
3444;BME280;1736;52.068;6.968;2023-03-15T04:57:13;100863.03;;;1.34;100.00
3444;BME280;1736;52.068;6.968;2023-03-15T04:59:39;100863.97;;;1.33;100.00
3444;BME280;1736;52.068;6.968;2023-03-15T05:02:06;100863.81;;;1.36;100.00
3444;BME280;1736;52.068;6.968;2023-03-15T05:04:34;100871.72;;;1.34;100.00
3444;BME280;1736;52.068;6.968;2023-03-15T05:07:00;100865.53;;;1.37;100.00
3444;BME280;1736;52.068;6.968;2023-03-15T05:09:27;100869.78;;;1.39;100.00
3444;BME280;1736;52.068;6.968;2023-03-15T05:11:54;100867.53;;;1.30;100.00
3444;BME280;1736;52.068;6.968;2023-03-15T05:14:20;100869.31;;;1.30;100.00
3444;BME280;1736;52.068;6.968;2023-03-15T05:16:47;100874.66;;;1.27;100.00
3444;BME280;1736;52.068;6.968;2023-03-15T05:19:18;100881.34;;;1.34;100.00
3444;BME280;1736;52.068;6.968;2023-03-15T05:21:47;100890.22;;;1.30;100.00
3444;BME280;1736;52.068;6.968;2023-03-15T05:24:15;100885.91;;;1.29;100.00
3444;BME280;1736;52.068;6.968;2023-03-15T05:26:41;100890.22;;;1.30;100.00
3444;BME280;1736;52.068;6.968;2023-03-15T05:29:11;100898.84;;;1.32;100.00
3444;BME280;1736;52.068;6.968;2023-03-15T05:31:38;100905.91;;;1.30;100.00
3444;BME280;1736;52.068;6.968;2023-03-15T05:34:05;100906.84;;;1.29;100.00
3444;BME280;1736;52.068;6.968;2023-03-15T05:36:32;100910.16;;;1.32;100.00
3444;BME280;1736;52.068;6.968;2023-03-15T05:39:00;100920.03;;;1.46;100.00
3444;BME280;1736;52.068;6.968;2023-03-15T05:41:29;100916.09;;;1.36;100.00
3444;BME280;1736;52.068;6.968;2023-03-15T05:43:55;100928.97;;;1.40;100.00
3444;BME280;1736;52.068;6.968;2023-03-15T05:46:22;100928.13;;;1.40;100.00
3444;BME280;1736;52.068;6.968;2023-03-15T05:48:49;100932.53;;;1.39;100.00
3444;BME280;1736;52.068;6.968;2023-03-15T05:51:15;100945.25;;;1.47;100.00
3444;BME280;1736;52.068;6.968;2023-03-15T05:53:42;100940.22;;;1.42;100.00
3444;BME280;1736;52.068;6.968;2023-03-15T05:56:10;100952.25;;;1.46;100.00
3444;BME280;1736;52.068;6.968;2023-03-15T05:58:36;100959.97;;;1.49;100.00
3444;BME280;1736;52.068;6.968;2023-03-15T06:01:03;100955.72;;;1.47;100.00
3444;BME280;1736;52.068;6.968;2023-03-15T06:03:30;100962.53;;;1.51;100.00
3444;BME280;1736;52.068;6.968;2023-03-15T06:05:57;100971.81;;;1.58;100.00
3444;BME280;1736;52.068;6.968;2023-03-15T06:08:23;100967.34;;;1.60;100.00
3444;BME280;1736;52.068;6.968;2023-03-15T06:10:50;100971.16;;;1.53;100.00
3444;BME280;1736;52.068;6.968;2023-03-15T06:13:18;100969.44;;;1.52;100.00
3444;BME280;1736;52.068;6.968;2023-03-15T06:15:45;100967.75;;;1.51;100.00
3444;BME280;1736;52.068;6.968;2023-03-15T06:18:12;100979.91;;;1.52;100.00
3444;BME280;1736;52.068;6.968;2023-03-15T06:20:41;100978.22;;;1.51;100.00
3444;BME280;1736;52.068;6.968;2023-03-15T06:23:08;100980.06;;;1.49;100.00
3444;BME280;1736;52.068;6.968;2023-03-15T06:25:35;100980.75;;;1.52;100.00
3444;BME280;1736;52.068;6.968;2023-03-15T06:28:01;100983.19;;;1.57;100.00
3444;BME280;1736;52.068;6.968;2023-03-15T06:30:29;100989.78;;;1.65;100.00
3444;BME280;1736;52.068;6.968;2023-03-15T06:32:56;100995.94;;;1.64;100.00
3444;BME280;1736;52.068;6.968;2023-03-15T06:35:22;100995.81;;;1.67;100.00
3444;BME280;1736;52.068;6.968;2023-03-15T06:37:49;101011.56;;;1.66;100.00
3444;BME280;1736;52.068;6.968;2023-03-15T06:40:17;101011.97;;;1.57;100.00
3444;BME280;1736;52.068;6.968;2023-03-15T06:42:43;101023.09;;;1.62;100.00
3444;BME280;1736;52.068;6.968;2023-03-15T06:45:10;101018.69;;;1.62;100.00
3444;BME280;1736;52.068;6.968;2023-03-15T06:47:38;101017.63;;;1.66;100.00
3444;BME280;1736;52.068;6.968;2023-03-15T06:50:06;101034.97;;;1.69;100.00
3444;BME280;1736;52.068;6.968;2023-03-15T06:52:33;101035.19;;;1.84;100.00
3444;BME280;1736;52.068;6.968;2023-03-15T06:54:59;101035.25;;;1.83;100.00
3444;BME280;1736;52.068;6.968;2023-03-15T06:57:26;101049.84;;;1.88;100.00
3444;BME280;1736;52.068;6.968;2023-03-15T06:59:53;101044.41;;;1.93;100.00
3444;BME280;1736;52.068;6.968;2023-03-15T07:02:19;101050.91;;;1.84;100.00
3444;BME280;1736;52.068;6.968;2023-03-15T07:04:47;101060.84;;;1.96;100.00
3444;BME280;1736;52.068;6.968;2023-03-15T07:07:14;101050.22;;;1.99;100.00
3444;BME280;1736;52.068;6.968;2023-03-15T07:09:41;101063.06;;;2.05;100.00
3444;BME280;1736;52.068;6.968;2023-03-15T07:12:08;101064.22;;;2.18;100.00
3444;BME280;1736;52.068;6.968;2023-03-15T07:14:36;101067.38;;;2.06;100.00
3444;BME280;1736;52.068;6.968;2023-03-15T07:17:02;101075.88;;;2.11;100.00
3444;BME280;1736;52.068;6.968;2023-03-15T07:19:29;101078.72;;;2.07;100.00
3444;BME280;1736;52.068;6.968;2023-03-15T07:21:57;101082.25;;;2.06;100.00
3444;BME280;1736;52.068;6.968;2023-03-15T07:24:23;101078.50;;;2.11;100.00
3444;BME280;1736;52.068;6.968;2023-03-15T07:26:51;101088.38;;;2.25;100.00
3444;BME280;1736;52.068;6.968;2023-03-15T07:29:20;101081.56;;;2.21;100.00
3444;BME280;1736;52.068;6.968;2023-03-15T07:31:47;101083.59;;;2.34;100.00
3444;BME280;1736;52.068;6.968;2023-03-15T07:34:14;101086.78;;;2.41;100.00
3444;BME280;1736;52.068;6.968;2023-03-15T07:36:40;101085.63;;;2.48;100.00
3444;BME280;1736;52.068;6.968;2023-03-15T07:39:08;101087.06;;;2.55;100.00
3444;BME280;1736;52.068;6.968;2023-03-15T07:41:35;101093.06;;;2.57;100.00
3444;BME280;1736;52.068;6.968;2023-03-15T07:44:02;101093.38;;;2.69;100.00
3444;BME280;1736;52.068;6.968;2023-03-15T07:46:29;101101.56;;;2.80;100.00
3444;BME280;1736;52.068;6.968;2023-03-15T07:48:56;101101.38;;;2.85;100.00
3444;BME280;1736;52.068;6.968;2023-03-15T07:51:22;101106.19;;;2.94;100.00
3444;BME280;1736;52.068;6.968;2023-03-15T07:53:48;101109.19;;;3.05;100.00
3444;BME280;1736;52.068;6.968;2023-03-15T07:56:16;101117.81;;;3.07;100.00
3444;BME280;1736;52.068;6.968;2023-03-15T07:58:43;101112.31;;;3.13;100.00
3444;BME280;1736;52.068;6.968;2023-03-15T08:01:10;101111.16;;;3.18;100.00
3444;BME280;1736;52.068;6.968;2023-03-15T08:03:36;101122.22;;;3.25;100.00
3444;BME280;1736;52.068;6.968;2023-03-15T08:06:03;101142.84;;;3.32;100.00
3444;BME280;1736;52.068;6.968;2023-03-15T08:08:30;101145.13;;;3.40;100.00
3444;BME280;1736;52.068;6.968;2023-03-15T08:10:56;101149.00;;;3.50;100.00
3444;BME280;1736;52.068;6.968;2023-03-15T08:13:24;101158.72;;;3.48;100.00
3444;BME280;1736;52.068;6.968;2023-03-15T08:15:51;101165.09;;;3.61;100.00
3444;BME280;1736;52.068;6.968;2023-03-15T08:18:18;101169.41;;;3.62;100.00
3444;BME280;1736;52.068;6.968;2023-03-15T08:20:44;101179.47;;;3.71;100.00
3444;BME280;1736;52.068;6.968;2023-03-15T08:23:11;101195.50;;;3.83;100.00
3444;BME280;1736;52.068;6.968;2023-03-15T08:25:40;101182.88;;;3.73;100.00
3444;BME280;1736;52.068;6.968;2023-03-15T08:28:07;101191.38;;;3.78;100.00
3444;BME280;1736;52.068;6.968;2023-03-15T08:30:35;101190.94;;;3.87;100.00
3444;BME280;1736;52.068;6.968;2023-03-15T08:33:02;101194.97;;;3.94;99.40
3444;BME280;1736;52.068;6.968;2023-03-15T08:35:29;101196.03;;;3.90;99.41
3444;BME280;1736;52.068;6.968;2023-03-15T08:37:57;101204.34;;;3.99;99.57
3444;BME280;1736;52.068;6.968;2023-03-15T08:40:23;101208.72;;;3.99;98.42
3444;BME280;1736;52.068;6.968;2023-03-15T08:42:50;101207.13;;;4.13;99.72
3444;BME280;1736;52.068;6.968;2023-03-15T08:45:18;101222.66;;;4.18;97.62
3444;BME280;1736;52.068;6.968;2023-03-15T08:47:46;101211.38;;;4.16;96.43
3444;BME280;1736;52.068;6.968;2023-03-15T08:50:14;101216.88;;;4.11;95.74
3444;BME280;1736;52.068;6.968;2023-03-15T08:52:41;101214.53;;;4.22;97.10
3444;BME280;1736;52.068;6.968;2023-03-15T08:55:09;101231.66;;;4.31;97.04
3444;BME280;1736;52.068;6.968;2023-03-15T08:57:38;101226.84;;;4.39;96.19
3444;BME280;1736;52.068;6.968;2023-03-15T09:00:06;101237.50;;;4.36;95.58
3444;BME280;1736;52.068;6.968;2023-03-15T09:02:33;101236.22;;;4.44;96.41
3444;BME280;1736;52.068;6.968;2023-03-15T09:05:02;101234.28;;;4.65;96.19
3444;BME280;1736;52.068;6.968;2023-03-15T09:07:31;101232.72;;;4.61;95.10
3444;BME280;1736;52.068;6.968;2023-03-15T09:09:57;101229.72;;;4.68;94.32
3444;BME280;1736;52.068;6.968;2023-03-15T09:12:24;101235.81;;;4.86;92.95
3444;BME280;1736;52.068;6.968;2023-03-15T09:14:52;101231.41;;;4.86;89.79
3444;BME280;1736;52.068;6.968;2023-03-15T09:17:18;101234.19;;;4.83;89.80
3444;BME280;1736;52.068;6.968;2023-03-15T09:19:45;101235.34;;;4.95;90.43
3444;BME280;1736;52.068;6.968;2023-03-15T09:22:13;101244.00;;;4.97;89.91
3444;BME280;1736;52.068;6.968;2023-03-15T09:24:39;101238.09;;;5.09;91.11
3444;BME280;1736;52.068;6.968;2023-03-15T09:27:06;101241.38;;;4.97;88.34
3444;BME280;1736;52.068;6.968;2023-03-15T09:29:32;101239.91;;;5.08;89.95
3444;BME280;1736;52.068;6.968;2023-03-15T09:31:59;101245.56;;;5.16;89.27
3444;BME280;1736;52.068;6.968;2023-03-15T09:34:26;101248.84;;;5.21;88.13
3444;BME280;1736;52.068;6.968;2023-03-15T09:36:53;101249.56;;;5.08;84.82
3444;BME280;1736;52.068;6.968;2023-03-15T09:39:21;101248.91;;;5.20;84.66
3444;BME280;1736;52.068;6.968;2023-03-15T09:41:49;101248.41;;;5.13;84.40
3444;BME280;1736;52.068;6.968;2023-03-15T09:44:31;101249.03;;;5.34;86.38
3444;BME280;1736;52.068;6.968;2023-03-15T09:47:07;101253.91;;;5.57;86.85
3444;BME280;1736;52.068;6.968;2023-03-15T09:49:41;101251.88;;;5.46;84.44
3444;BME280;1736;52.068;6.968;2023-03-15T09:52:26;101243.75;;;5.67;84.31
3444;BME280;1736;52.068;6.968;2023-03-15T09:54:59;101252.91;;;5.75;80.87
3444;BME280;1736;52.068;6.968;2023-03-15T09:57:35;101257.72;;;5.84;79.94
3444;BME280;1736;52.068;6.968;2023-03-15T10:00:06;101253.31;;;6.00;81.62
3444;BME280;1736;52.068;6.968;2023-03-15T10:02:43;101255.63;;;6.20;80.10
3444;BME280;1736;52.068;6.968;2023-03-15T10:05:15;101255.97;;;6.45;81.71
3444;BME280;1736;52.068;6.968;2023-03-15T10:07:43;101261.72;;;6.52;79.51
3444;BME280;1736;52.068;6.968;2023-03-15T10:10:16;101260.41;;;6.59;77.47
3444;BME280;1736;52.068;6.968;2023-03-15T10:12:45;101253.50;;;6.72;77.59
3444;BME280;1736;52.068;6.968;2023-03-15T10:15:25;101256.47;;;6.95;75.75
3444;BME280;1736;52.068;6.968;2023-03-15T10:18:09;101257.81;;;7.02;74.56
3444;BME280;1736;52.068;6.968;2023-03-15T10:20:45;101260.84;;;7.10;73.74
3444;BME280;1736;52.068;6.968;2023-03-15T10:23:17;101257.44;;;7.08;70.84
3444;BME280;1736;52.068;6.968;2023-03-15T10:25:48;101271.56;;;7.21;71.16
3444;BME280;1736;52.068;6.968;2023-03-15T10:28:23;101263.34;;;7.12;71.78
3444;BME280;1736;52.068;6.968;2023-03-15T10:30:50;101268.19;;;7.19;70.58
3444;BME280;1736;52.068;6.968;2023-03-15T10:33:23;101263.19;;;7.15;70.29
3444;BME280;1736;52.068;6.968;2023-03-15T10:35:52;101264.22;;;7.12;68.55
3444;BME280;1736;52.068;6.968;2023-03-15T10:38:20;101269.31;;;7.29;70.40
3444;BME280;1736;52.068;6.968;2023-03-15T10:40:50;101271.59;;;7.35;69.10
3444;BME280;1736;52.068;6.968;2023-03-15T10:43:19;101267.91;;;7.52;68.03
3444;BME280;1736;52.068;6.968;2023-03-15T10:45:57;101268.00;;;7.64;66.69
3444;BME280;1736;52.068;6.968;2023-03-15T10:48:24;101264.59;;;7.76;63.83
3444;BME280;1736;52.068;6.968;2023-03-15T10:50:51;101279.91;;;7.71;61.41
3444;BME280;1736;52.068;6.968;2023-03-15T10:53:18;101280.06;;;7.82;62.01
3444;BME280;1736;52.068;6.968;2023-03-15T10:55:47;101283.41;;;7.58;60.12
3444;BME280;1736;52.068;6.968;2023-03-15T10:58:21;101281.41;;;7.75;60.58
3444;BME280;1736;52.068;6.968;2023-03-15T11:00:54;101286.09;;;7.84;62.22
3444;BME280;1736;52.068;6.968;2023-03-15T11:03:25;101286.66;;;7.89;61.71
3444;BME280;1736;52.068;6.968;2023-03-15T11:05:53;101293.34;;;7.95;61.37
3444;BME280;1736;52.068;6.968;2023-03-15T11:08:22;101292.75;;;8.04;61.90
3444;BME280;1736;52.068;6.968;2023-03-15T11:10:55;101286.94;;;7.99;59.88
3444;BME280;1736;52.068;6.968;2023-03-15T11:13:25;101281.81;;;8.10;57.29
3444;BME280;1736;52.068;6.968;2023-03-15T11:15:56;101296.38;;;8.03;57.86
3444;BME280;1736;52.068;6.968;2023-03-15T11:18:29;101300.78;;;8.02;57.09
3444;BME280;1736;52.068;6.968;2023-03-15T11:20:56;101298.00;;;7.91;58.80
3444;BME280;1736;52.068;6.968;2023-03-15T11:23:25;101294.78;;;7.86;58.88
3444;BME280;1736;52.068;6.968;2023-03-15T11:25:53;101299.31;;;7.84;58.86
3444;BME280;1736;52.068;6.968;2023-03-15T11:28:23;101295.72;;;7.99;58.51
3444;BME280;1736;52.068;6.968;2023-03-15T11:30:51;101302.09;;;8.09;57.33
3444;BME280;1736;52.068;6.968;2023-03-15T11:33:28;101302.91;;;7.83;56.56
3444;BME280;1736;52.068;6.968;2023-03-15T11:35:59;101310.25;;;7.92;58.45
3444;BME280;1736;52.068;6.968;2023-03-15T11:38:29;101312.53;;;7.84;57.75
3444;BME280;1736;52.068;6.968;2023-03-15T11:40:59;101312.66;;;7.69;54.43
3444;BME280;1736;52.068;6.968;2023-03-15T11:43:36;101309.44;;;7.78;53.03
3444;BME280;1736;52.068;6.968;2023-03-15T11:46:10;101319.38;;;8.01;57.24
3444;BME280;1736;52.068;6.968;2023-03-15T11:48:43;101311.25;;;8.18;55.00
3444;BME280;1736;52.068;6.968;2023-03-15T11:51:12;101320.38;;;8.40;54.29
3444;BME280;1736;52.068;6.968;2023-03-15T11:53:44;101308.00;;;8.41;54.39
3444;BME280;1736;52.068;6.968;2023-03-15T11:56:23;101318.63;;;8.53;54.80
3444;BME280;1736;52.068;6.968;2023-03-15T11:59:06;101324.00;;;8.25;50.50
3444;BME280;1736;52.068;6.968;2023-03-15T12:01:36;101315.72;;;7.89;48.37
3444;BME280;1736;52.068;6.968;2023-03-15T12:10:28;101320.25;;;8.01;51.91
3444;BME280;1736;52.068;6.968;2023-03-15T12:12:57;101320.25;;;8.01;51.87
3444;BME280;1736;52.068;6.968;2023-03-15T12:15:58;101326.56;;;8.27;50.58
3444;BME280;1736;52.068;6.968;2023-03-15T12:18:32;101328.44;;;8.25;49.07
3444;BME280;1736;52.068;6.968;2023-03-15T12:21:13;101330.78;;;8.15;47.68
3444;BME280;1736;52.068;6.968;2023-03-15T12:23:43;101322.75;;;8.17;50.92
3444;BME280;1736;52.068;6.968;2023-03-15T12:26:22;101320.53;;;7.97;48.38
3444;BME280;1736;52.068;6.968;2023-03-15T12:28:51;101316.69;;;7.88;49.19
3444;BME280;1736;52.068;6.968;2023-03-15T12:31:21;101326.44;;;8.14;53.24
3444;BME280;1736;52.068;6.968;2023-03-15T12:33:50;101331.53;;;8.17;52.49
3444;BME280;1736;52.068;6.968;2023-03-15T12:36:34;101329.50;;;7.94;48.94
3444;BME280;1736;52.068;6.968;2023-03-15T12:39:19;101326.63;;;8.11;49.65
3444;BME280;1736;52.068;6.968;2023-03-15T12:41:47;101331.00;;;8.12;49.51
3444;BME280;1736;52.068;6.968;2023-03-15T12:44:36;101321.00;;;7.89;46.59
3444;BME280;1736;52.068;6.968;2023-03-15T12:47:06;101323.63;;;8.03;46.62
3444;BME280;1736;52.068;6.968;2023-03-15T12:49:35;101325.63;;;8.14;51.56
3444;BME280;1736;52.068;6.968;2023-03-15T12:52:04;101320.88;;;8.33;50.52
3444;BME280;1736;52.068;6.968;2023-03-15T12:54:39;101319.34;;;8.43;51.79
3444;BME280;1736;52.068;6.968;2023-03-15T12:57:09;101332.31;;;8.33;47.69
3444;BME280;1736;52.068;6.968;2023-03-15T12:59:39;101312.56;;;8.25;46.31
3444;BME280;1736;52.068;6.968;2023-03-15T13:02:21;101323.44;;;8.06;46.20
3444;BME280;1736;52.068;6.968;2023-03-15T13:04:57;101321.56;;;8.08;46.72
3444;BME280;1736;52.068;6.968;2023-03-15T13:07:31;101320.69;;;8.08;48.11
3444;BME280;1736;52.068;6.968;2023-03-15T13:10:25;101322.75;;;8.17;46.30
3444;BME280;1736;52.068;6.968;2023-03-15T13:13:01;101323.44;;;8.20;47.07
3444;BME280;1736;52.068;6.968;2023-03-15T13:15:32;101329.59;;;8.07;45.21
3444;BME280;1736;52.068;6.968;2023-03-15T13:18:10;101329.09;;;8.28;49.75
3444;BME280;1736;52.068;6.968;2023-03-15T13:20:50;101335.50;;;8.38;45.27
3444;BME280;1736;52.068;6.968;2023-03-15T13:23:19;101331.06;;;8.39;48.67
3444;BME280;1736;52.068;6.968;2023-03-15T13:26:02;101336.38;;;8.51;48.62
3444;BME280;1736;52.068;6.968;2023-03-15T13:28:36;101338.50;;;8.73;47.03
3444;BME280;1736;52.068;6.968;2023-03-15T13:31:11;101336.72;;;8.73;46.01